sensor_id;sensor_type;location;lat;lon;timestamp;P1;durP1;ratioP1;P2;durP2;ratioP2
51366;SDS011;37458;49.428;8.646;2023-01-08T13:47:30;2.20;;;1.80;;
51366;SDS011;37458;49.428;8.646;2023-01-08T13:50:00;4.33;;;1.93;;
51366;SDS011;37458;49.428;8.646;2023-01-08T13:55:04;3.07;;;2.30;;
51366;SDS011;37458;49.428;8.646;2023-01-08T13:57:41;4.87;;;2.43;;
51366;SDS011;37458;49.428;8.646;2023-01-08T14:00:08;4.30;;;2.07;;
51366;SDS011;37458;49.428;8.646;2023-01-08T14:02:43;3.90;;;1.90;;
51366;SDS011;37458;49.428;8.646;2023-01-08T14:05:25;3.70;;;2.00;;
51366;SDS011;37458;49.428;8.646;2023-01-08T14:07:51;2.40;;;1.83;;
51366;SDS011;37458;49.428;8.646;2023-01-08T14:10:17;2.57;;;1.80;;
51366;SDS011;37458;49.428;8.646;2023-01-08T14:12:43;1.80;;;1.70;;
51366;SDS011;37458;49.428;8.646;2023-01-08T14:15:19;2.17;;;1.90;;
51366;SDS011;37458;49.428;8.646;2023-01-08T14:17:46;4.33;;;1.80;;
51366;SDS011;37458;49.428;8.646;2023-01-08T14:20:12;2.20;;;1.80;;
51366;SDS011;37458;49.428;8.646;2023-01-08T14:22:41;2.10;;;1.90;;
51366;SDS011;37458;49.428;8.646;2023-01-08T14:25:12;2.13;;;1.87;;
51366;SDS011;37458;49.428;8.646;2023-01-08T14:27:39;3.50;;;1.80;;
51366;SDS011;37458;49.428;8.646;2023-01-08T14:30:13;1.57;;;1.47;;
51366;SDS011;37458;49.428;8.646;2023-01-08T14:32:41;1.90;;;1.70;;
51366;SDS011;37458;49.428;8.646;2023-01-08T14:35:12;2.07;;;1.77;;
51366;SDS011;37458;49.428;8.646;2023-01-08T14:37:39;2.27;;;2.07;;
51366;SDS011;37458;49.428;8.646;2023-01-08T14:40:12;2.13;;;1.90;;
51366;SDS011;37458;49.428;8.646;2023-01-08T14:42:38;2.27;;;1.80;;
51366;SDS011;37458;49.428;8.646;2023-01-08T14:45:07;2.00;;;1.80;;
51366;SDS011;37458;49.428;8.646;2023-01-08T14:47:41;1.87;;;1.67;;
51366;SDS011;37458;49.428;8.646;2023-01-08T14:50:17;1.73;;;1.63;;
51366;SDS011;37458;49.428;8.646;2023-01-08T14:52:43;3.70;;;1.70;;
51366;SDS011;37458;49.428;8.646;2023-01-08T14:55:12;1.23;;;1.13;;
51366;SDS011;37458;49.428;8.646;2023-01-08T14:57:42;3.00;;;1.30;;
51366;SDS011;37458;49.428;8.646;2023-01-08T15:00:13;1.40;;;1.30;;
51366;SDS011;37458;49.428;8.646;2023-01-08T15:02:40;1.00;;;1.00;;
51366;SDS011;37458;49.428;8.646;2023-01-08T15:07:40;1.93;;;1.10;;
51366;SDS011;37458;49.428;8.646;2023-01-08T15:10:30;1.30;;;1.20;;
51366;SDS011;37458;49.428;8.646;2023-01-08T15:12:55;1.77;;;1.23;;
51366;SDS011;37458;49.428;8.646;2023-01-08T15:15:24;1.20;;;1.10;;
51366;SDS011;37458;49.428;8.646;2023-01-08T15:17:50;1.23;;;1.13;;
51366;SDS011;37458;49.428;8.646;2023-01-08T15:20:16;1.20;;;1.10;;
51366;SDS011;37458;49.428;8.646;2023-01-08T15:22:43;0.90;;;0.90;;
51366;SDS011;37458;49.428;8.646;2023-01-08T15:25:21;1.30;;;1.10;;
51366;SDS011;37458;49.428;8.646;2023-01-08T15:27:51;1.57;;;0.90;;
51366;SDS011;37458;49.428;8.646;2023-01-08T15:30:22;1.77;;;1.63;;
51366;SDS011;37458;49.428;8.646;2023-01-08T15:32:49;1.30;;;1.20;;
51366;SDS011;37458;49.428;8.646;2023-01-08T15:35:16;0.90;;;0.90;;
51366;SDS011;37458;49.428;8.646;2023-01-08T15:37:42;1.30;;;1.13;;
51366;SDS011;37458;49.428;8.646;2023-01-08T15:40:09;1.10;;;1.10;;
51366;SDS011;37458;49.428;8.646;2023-01-08T15:42:36;1.40;;;1.30;;
51366;SDS011;37458;49.428;8.646;2023-01-08T15:45:21;1.47;;;1.17;;
51366;SDS011;37458;49.428;8.646;2023-01-08T15:47:47;1.63;;;1.10;;
51366;SDS011;37458;49.428;8.646;2023-01-08T15:50:13;1.20;;;1.10;;
51366;SDS011;37458;49.428;8.646;2023-01-08T15:52:41;0.90;;;0.90;;
51366;SDS011;37458;49.428;8.646;2023-01-08T15:55:40;1.20;;;1.10;;
51366;SDS011;37458;49.428;8.646;2023-01-08T15:58:01;1.40;;;1.30;;
51366;SDS011;37458;49.428;8.646;2023-01-08T16:00:30;1.07;;;1.07;;
51366;SDS011;37458;49.428;8.646;2023-01-08T16:02:57;1.43;;;1.33;;
51366;SDS011;37458;49.428;8.646;2023-01-08T16:05:24;2.20;;;1.20;;
51366;SDS011;37458;49.428;8.646;2023-01-08T16:07:50;1.40;;;1.30;;
51366;SDS011;37458;49.428;8.646;2023-01-08T16:10:16;1.70;;;1.60;;
51366;SDS011;37458;49.428;8.646;2023-01-08T16:12:42;2.00;;;1.80;;
51366;SDS011;37458;49.428;8.646;2023-01-08T16:15:09;2.20;;;2.00;;
51366;SDS011;37458;49.428;8.646;2023-01-08T16:17:35;2.43;;;2.23;;
51366;SDS011;37458;49.428;8.646;2023-01-08T16:20:05;2.03;;;1.90;;
51366;SDS011;37458;49.428;8.646;2023-01-08T16:22:31;1.80;;;1.60;;
51366;SDS011;37458;49.428;8.646;2023-01-08T16:24:57;1.50;;;1.40;;
51366;SDS011;37458;49.428;8.646;2023-01-08T16:27:23;2.87;;;1.57;;
51366;SDS011;37458;49.428;8.646;2023-01-08T16:29:49;2.00;;;1.80;;
51366;SDS011;37458;49.428;8.646;2023-01-08T16:32:15;2.00;;;1.80;;
51366;SDS011;37458;49.428;8.646;2023-01-08T16:34:42;2.97;;;2.07;;
51366;SDS011;37458;49.428;8.646;2023-01-08T16:37:08;3.70;;;2.13;;
51366;SDS011;37458;49.428;8.646;2023-01-08T16:39:34;2.50;;;2.23;;
51366;SDS011;37458;49.428;8.646;2023-01-08T16:42:00;2.83;;;2.20;;
51366;SDS011;37458;49.428;8.646;2023-01-08T16:44:26;2.20;;;2.00;;
51366;SDS011;37458;49.428;8.646;2023-01-08T16:46:56;2.20;;;2.00;;
51366;SDS011;37458;49.428;8.646;2023-01-08T16:49:22;2.73;;;2.53;;
51366;SDS011;37458;49.428;8.646;2023-01-08T16:51:49;5.20;;;2.70;;
51366;SDS011;37458;49.428;8.646;2023-01-08T16:54:15;2.67;;;2.40;;
51366;SDS011;37458;49.428;8.646;2023-01-08T16:56:41;3.07;;;2.60;;
51366;SDS011;37458;49.428;8.646;2023-01-08T16:59:08;4.00;;;3.60;;
51366;SDS011;37458;49.428;8.646;2023-01-08T17:01:34;5.23;;;3.50;;
51366;SDS011;37458;49.428;8.646;2023-01-08T17:04:00;6.20;;;3.70;;
51366;SDS011;37458;49.428;8.646;2023-01-08T17:06:26;5.27;;;3.57;;
51366;SDS011;37458;49.428;8.646;2023-01-08T17:08:52;4.47;;;3.30;;
51366;SDS011;37458;49.428;8.646;2023-01-08T17:11:19;3.53;;;3.23;;
51366;SDS011;37458;49.428;8.646;2023-01-08T17:13:45;4.30;;;3.30;;
51366;SDS011;37458;49.428;8.646;2023-01-08T17:16:12;4.87;;;3.00;;
51366;SDS011;37458;49.428;8.646;2023-01-08T17:18:39;4.83;;;3.23;;
51366;SDS011;37458;49.428;8.646;2023-01-08T17:21:05;4.97;;;2.83;;
51366;SDS011;37458;49.428;8.646;2023-01-08T17:23:32;4.77;;;2.90;;
51366;SDS011;37458;49.428;8.646;2023-01-08T17:25:59;4.33;;;2.50;;
51366;SDS011;37458;49.428;8.646;2023-01-08T17:28:28;2.70;;;2.23;;
51366;SDS011;37458;49.428;8.646;2023-01-08T17:31:01;4.90;;;2.43;;
51366;SDS011;37458;49.428;8.646;2023-01-08T17:33:28;3.40;;;3.10;;
51366;SDS011;37458;49.428;8.646;2023-01-08T17:35:54;4.80;;;3.20;;
51366;SDS011;37458;49.428;8.646;2023-01-08T17:38:19;8.80;;;4.73;;
51366;SDS011;37458;49.428;8.646;2023-01-08T17:40:45;7.60;;;4.97;;
51366;SDS011;37458;49.428;8.646;2023-01-08T17:43:11;9.17;;;5.60;;
51366;SDS011;37458;49.428;8.646;2023-01-08T17:45:37;5.50;;;3.30;;
51366;SDS011;37458;49.428;8.646;2023-01-08T17:48:04;4.37;;;3.43;;
51366;SDS011;37458;49.428;8.646;2023-01-08T17:50:30;4.93;;;3.97;;
51366;SDS011;37458;49.428;8.646;2023-01-08T17:52:56;3.30;;;2.97;;
51366;SDS011;37458;49.428;8.646;2023-01-08T17:55:23;5.17;;;3.17;;
51366;SDS011;37458;49.428;8.646;2023-01-08T17:57:49;4.90;;;2.70;;
51366;SDS011;37458;49.428;8.646;2023-01-08T18:00:15;2.30;;;2.10;;
51366;SDS011;37458;49.428;8.646;2023-01-08T18:02:42;3.23;;;2.70;;
51366;SDS011;37458;49.428;8.646;2023-01-08T18:05:08;3.27;;;2.60;;
51366;SDS011;37458;49.428;8.646;2023-01-08T18:07:34;5.60;;;2.00;;
51366;SDS011;37458;49.428;8.646;2023-01-08T18:10:00;2.20;;;2.00;;
51366;SDS011;37458;49.428;8.646;2023-01-08T18:12:26;1.97;;;1.63;;
51366;SDS011;37458;49.428;8.646;2023-01-08T18:14:52;2.33;;;1.80;;
51366;SDS011;37458;49.428;8.646;2023-01-08T18:17:18;1.90;;;1.60;;
51366;SDS011;37458;49.428;8.646;2023-01-08T18:19:45;1.93;;;1.60;;
51366;SDS011;37458;49.428;8.646;2023-01-08T18:22:12;3.43;;;1.83;;
51366;SDS011;37458;49.428;8.646;2023-01-08T18:24:39;2.83;;;1.70;;
51366;SDS011;37458;49.428;8.646;2023-01-08T18:27:05;2.50;;;1.70;;
51366;SDS011;37458;49.428;8.646;2023-01-08T18:29:31;2.33;;;1.60;;
51366;SDS011;37458;49.428;8.646;2023-01-08T18:31:57;1.83;;;1.53;;
51366;SDS011;37458;49.428;8.646;2023-01-08T18:34:23;1.73;;;1.63;;
51366;SDS011;37458;49.428;8.646;2023-01-08T18:36:50;2.17;;;1.63;;
51366;SDS011;37458;49.428;8.646;2023-01-08T18:39:16;5.00;;;2.20;;
51366;SDS011;37458;49.428;8.646;2023-01-08T18:41:42;2.40;;;1.50;;
51366;SDS011;37458;49.428;8.646;2023-01-08T18:44:27;2.70;;;1.70;;
51366;SDS011;37458;49.428;8.646;2023-01-08T18:46:52;3.53;;;1.90;;
51366;SDS011;37458;49.428;8.646;2023-01-08T18:49:19;2.57;;;1.90;;
51366;SDS011;37458;49.428;8.646;2023-01-08T18:51:45;1.97;;;1.77;;
51366;SDS011;37458;49.428;8.646;2023-01-08T18:54:11;5.73;;;3.53;;
51366;SDS011;37458;49.428;8.646;2023-01-08T18:56:37;4.87;;;3.07;;
51366;SDS011;37458;49.428;8.646;2023-01-08T18:59:04;3.43;;;2.80;;
51366;SDS011;37458;49.428;8.646;2023-01-08T19:01:31;2.20;;;2.00;;
51366;SDS011;37458;49.428;8.646;2023-01-08T19:03:57;3.77;;;2.17;;
51366;SDS011;37458;49.428;8.646;2023-01-08T19:06:23;5.13;;;3.67;;
51366;SDS011;37458;49.428;8.646;2023-01-08T19:08:49;8.57;;;4.40;;
51366;SDS011;37458;49.428;8.646;2023-01-08T19:11:16;9.70;;;4.20;;
51366;SDS011;37458;49.428;8.646;2023-01-08T19:13:42;5.47;;;3.07;;
51366;SDS011;37458;49.428;8.646;2023-01-08T19:16:09;3.93;;;2.80;;
51366;SDS011;37458;49.428;8.646;2023-01-08T19:18:36;3.30;;;2.23;;
51366;SDS011;37458;49.428;8.646;2023-01-08T19:21:04;2.50;;;1.83;;
51366;SDS011;37458;49.428;8.646;2023-01-08T19:23:30;2.20;;;1.70;;
51366;SDS011;37458;49.428;8.646;2023-01-08T19:25:56;2.03;;;1.80;;
51366;SDS011;37458;49.428;8.646;2023-01-08T19:28:22;2.87;;;2.50;;
51366;SDS011;37458;49.428;8.646;2023-01-08T19:30:54;3.57;;;2.60;;
51366;SDS011;37458;49.428;8.646;2023-01-08T19:33:21;2.20;;;2.00;;
51366;SDS011;37458;49.428;8.646;2023-01-08T19:35:46;1.13;;;1.10;;
51366;SDS011;37458;49.428;8.646;2023-01-08T19:38:12;1.40;;;1.30;;
51366;SDS011;37458;49.428;8.646;2023-01-08T19:40:38;2.10;;;1.70;;
51366;SDS011;37458;49.428;8.646;2023-01-08T19:43:04;1.50;;;1.40;;
51366;SDS011;37458;49.428;8.646;2023-01-08T19:45:49;1.30;;;1.20;;
51366;SDS011;37458;49.428;8.646;2023-01-08T19:48:15;2.27;;;2.07;;
51366;SDS011;37458;49.428;8.646;2023-01-08T19:50:41;1.90;;;1.80;;
51366;SDS011;37458;49.428;8.646;2023-01-08T19:53:07;2.10;;;1.80;;
51366;SDS011;37458;49.428;8.646;2023-01-08T19:55:34;3.10;;;2.37;;
51366;SDS011;37458;49.428;8.646;2023-01-08T19:58:01;1.63;;;1.50;;
51366;SDS011;37458;49.428;8.646;2023-01-08T20:00:27;2.47;;;1.60;;
51366;SDS011;37458;49.428;8.646;2023-01-08T20:02:53;1.50;;;1.40;;
51366;SDS011;37458;49.428;8.646;2023-01-08T20:05:19;2.03;;;1.53;;
51366;SDS011;37458;49.428;8.646;2023-01-08T20:07:45;2.10;;;1.50;;
51366;SDS011;37458;49.428;8.646;2023-01-08T20:10:11;2.63;;;1.30;;
51366;SDS011;37458;49.428;8.646;2023-01-08T20:12:38;2.03;;;1.70;;
51366;SDS011;37458;49.428;8.646;2023-01-08T20:15:04;2.27;;;1.80;;
51366;SDS011;37458;49.428;8.646;2023-01-08T20:17:30;2.67;;;1.50;;
51366;SDS011;37458;49.428;8.646;2023-01-08T20:19:56;2.47;;;1.97;;
51366;SDS011;37458;49.428;8.646;2023-01-08T20:22:22;1.50;;;1.40;;
51366;SDS011;37458;49.428;8.646;2023-01-08T20:24:49;1.50;;;1.40;;
51366;SDS011;37458;49.428;8.646;2023-01-08T20:27:17;1.57;;;1.43;;
51366;SDS011;37458;49.428;8.646;2023-01-08T20:29:43;1.97;;;1.60;;
51366;SDS011;37458;49.428;8.646;2023-01-08T20:32:09;2.17;;;1.80;;
51366;SDS011;37458;49.428;8.646;2023-01-08T20:34:35;1.60;;;1.50;;
51366;SDS011;37458;49.428;8.646;2023-01-08T20:37:02;1.43;;;1.30;;
51366;SDS011;37458;49.428;8.646;2023-01-08T20:39:30;1.67;;;1.50;;
51366;SDS011;37458;49.428;8.646;2023-01-08T20:41:56;1.50;;;1.40;;
51366;SDS011;37458;49.428;8.646;2023-01-08T20:44:22;1.63;;;1.53;;
51366;SDS011;37458;49.428;8.646;2023-01-08T20:46:48;1.80;;;1.50;;
51366;SDS011;37458;49.428;8.646;2023-01-08T20:49:20;2.97;;;2.17;;
51366;SDS011;37458;49.428;8.646;2023-01-08T20:51:49;2.20;;;2.00;;
51366;SDS011;37458;49.428;8.646;2023-01-08T20:54:15;2.00;;;1.80;;
51366;SDS011;37458;49.428;8.646;2023-01-08T20:56:42;1.97;;;1.87;;
51366;SDS011;37458;49.428;8.646;2023-01-08T20:59:08;2.80;;;1.70;;
51366;SDS011;37458;49.428;8.646;2023-01-08T21:01:34;1.73;;;1.63;;
51366;SDS011;37458;49.428;8.646;2023-01-08T21:04:01;1.40;;;1.30;;
51366;SDS011;37458;49.428;8.646;2023-01-08T21:06:28;1.70;;;1.60;;
51366;SDS011;37458;49.428;8.646;2023-01-08T21:08:56;2.00;;;1.90;;
51366;SDS011;37458;49.428;8.646;2023-01-08T21:11:22;2.30;;;1.87;;
51366;SDS011;37458;49.428;8.646;2023-01-08T21:13:49;2.00;;;1.80;;
51366;SDS011;37458;49.428;8.646;2023-01-08T21:16:17;1.70;;;1.60;;
51366;SDS011;37458;49.428;8.646;2023-01-08T21:18:43;2.57;;;1.67;;
51366;SDS011;37458;49.428;8.646;2023-01-08T21:21:11;2.30;;;2.10;;
51366;SDS011;37458;49.428;8.646;2023-01-08T21:23:37;2.07;;;1.90;;
51366;SDS011;37458;49.428;8.646;2023-01-08T21:26:04;1.67;;;1.53;;
51366;SDS011;37458;49.428;8.646;2023-01-08T21:28:31;3.00;;;1.90;;
51366;SDS011;37458;49.428;8.646;2023-01-08T21:31:03;4.17;;;1.83;;
51366;SDS011;37458;49.428;8.646;2023-01-08T21:33:30;3.17;;;1.97;;
51366;SDS011;37458;49.428;8.646;2023-01-08T21:35:56;2.27;;;1.93;;
51366;SDS011;37458;49.428;8.646;2023-01-08T21:38:22;2.63;;;2.30;;
51366;SDS011;37458;49.428;8.646;2023-01-08T21:40:56;2.80;;;2.03;;
51366;SDS011;37458;49.428;8.646;2023-01-08T21:43:22;2.20;;;2.00;;
51366;SDS011;37458;49.428;8.646;2023-01-08T21:46:07;2.50;;;2.13;;
51366;SDS011;37458;49.428;8.646;2023-01-08T21:48:33;2.27;;;1.90;;
51366;SDS011;37458;49.428;8.646;2023-01-08T21:50:59;3.23;;;2.00;;
51366;SDS011;37458;49.428;8.646;2023-01-08T21:53:25;5.73;;;2.10;;
51366;SDS011;37458;49.428;8.646;2023-01-08T21:55:58;3.50;;;2.20;;
51366;SDS011;37458;49.428;8.646;2023-01-08T21:58:25;2.83;;;2.13;;
51366;SDS011;37458;49.428;8.646;2023-01-08T22:00:51;2.40;;;2.20;;
51366;SDS011;37458;49.428;8.646;2023-01-08T22:03:17;2.60;;;1.90;;
51366;SDS011;37458;49.428;8.646;2023-01-08T22:05:44;2.53;;;2.20;;
51366;SDS011;37458;49.428;8.646;2023-01-08T22:08:10;3.00;;;2.43;;
51366;SDS011;37458;49.428;8.646;2023-01-08T22:10:42;2.40;;;2.20;;
51366;SDS011;37458;49.428;8.646;2023-01-08T22:13:08;2.67;;;2.47;;
51366;SDS011;37458;49.428;8.646;2023-01-08T22:15:34;2.30;;;2.10;;
51366;SDS011;37458;49.428;8.646;2023-01-08T22:18:00;2.63;;;2.20;;
51366;SDS011;37458;49.428;8.646;2023-01-08T22:20:26;2.20;;;1.97;;
51366;SDS011;37458;49.428;8.646;2023-01-08T22:22:52;5.20;;;2.20;;
51366;SDS011;37458;49.428;8.646;2023-01-08T22:25:18;2.80;;;2.40;;
51366;SDS011;37458;49.428;8.646;2023-01-08T22:27:44;2.50;;;2.30;;
51366;SDS011;37458;49.428;8.646;2023-01-08T22:30:10;3.57;;;2.50;;
51366;SDS011;37458;49.428;8.646;2023-01-08T22:32:36;2.47;;;2.27;;
51366;SDS011;37458;49.428;8.646;2023-01-08T22:35:02;5.70;;;2.60;;
51366;SDS011;37458;49.428;8.646;2023-01-08T22:37:28;3.17;;;2.37;;
51366;SDS011;37458;49.428;8.646;2023-01-08T22:39:55;5.00;;;3.03;;
51366;SDS011;37458;49.428;8.646;2023-01-08T22:42:22;3.67;;;2.90;;
